sensor_id;sensor_type;location;lat;lon;timestamp;temperature;humidity
9125;DHT22;4597;48.730;9.114;2023-10-31T00:01:02;12.80;99.90
9125;DHT22;4597;48.730;9.114;2023-10-31T00:03:27;12.70;99.90
9125;DHT22;4597;48.730;9.114;2023-10-31T00:05:53;12.70;99.90
9125;DHT22;4597;48.730;9.114;2023-10-31T00:08:18;12.70;99.90
9125;DHT22;4597;48.730;9.114;2023-10-31T00:10:44;12.60;99.90
9125;DHT22;4597;48.730;9.114;2023-10-31T00:13:10;12.50;99.90
9125;DHT22;4597;48.730;9.114;2023-10-31T00:15:36;12.50;99.90
9125;DHT22;4597;48.730;9.114;2023-10-31T00:18:02;12.50;99.90
9125;DHT22;4597;48.730;9.114;2023-10-31T00:20:27;12.40;99.90
9125;DHT22;4597;48.730;9.114;2023-10-31T00:22:53;12.20;99.90
9125;DHT22;4597;48.730;9.114;2023-10-31T00:25:19;12.20;99.90
9125;DHT22;4597;48.730;9.114;2023-10-31T00:27:44;12.00;99.90
9125;DHT22;4597;48.730;9.114;2023-10-31T00:30:10;12.00;99.90
9125;DHT22;4597;48.730;9.114;2023-10-31T00:32:36;11.90;99.90
9125;DHT22;4597;48.730;9.114;2023-10-31T00:35:01;11.90;99.90
9125;DHT22;4597;48.730;9.114;2023-10-31T00:37:27;11.90;99.90
9125;DHT22;4597;48.730;9.114;2023-10-31T00:39:52;11.80;99.90
9125;DHT22;4597;48.730;9.114;2023-10-31T00:42:18;11.80;99.90
9125;DHT22;4597;48.730;9.114;2023-10-31T00:44:43;11.80;99.90
9125;DHT22;4597;48.730;9.114;2023-10-31T00:47:09;11.80;99.90
9125;DHT22;4597;48.730;9.114;2023-10-31T00:49:35;11.70;99.90
9125;DHT22;4597;48.730;9.114;2023-10-31T00:52:00;11.70;99.90
9125;DHT22;4597;48.730;9.114;2023-10-31T00:54:26;11.70;99.90
9125;DHT22;4597;48.730;9.114;2023-10-31T00:56:52;11.70;99.90
9125;DHT22;4597;48.730;9.114;2023-10-31T00:59:17;11.70;99.90
9125;DHT22;4597;48.730;9.114;2023-10-31T01:01:43;11.70;99.90
9125;DHT22;4597;48.730;9.114;2023-10-31T01:04:09;11.50;99.90
9125;DHT22;4597;48.730;9.114;2023-10-31T01:06:42;11.50;99.90
9125;DHT22;4597;48.730;9.114;2023-10-31T01:09:11;11.50;99.90
9125;DHT22;4597;48.730;9.114;2023-10-31T01:11:37;11.50;99.90
9125;DHT22;4597;48.730;9.114;2023-10-31T01:14:03;11.50;99.90
9125;DHT22;4597;48.730;9.114;2023-10-31T01:16:28;11.50;99.90
9125;DHT22;4597;48.730;9.114;2023-10-31T01:18:54;11.40;99.90
9125;DHT22;4597;48.730;9.114;2023-10-31T01:21:19;11.40;99.90
9125;DHT22;4597;48.730;9.114;2023-10-31T01:23:45;11.40;99.90
9125;DHT22;4597;48.730;9.114;2023-10-31T01:26:10;11.40;99.90
9125;DHT22;4597;48.730;9.114;2023-10-31T01:28:36;11.40;99.90
9125;DHT22;4597;48.730;9.114;2023-10-31T01:31:01;11.30;99.90
9125;DHT22;4597;48.730;9.114;2023-10-31T01:33:27;11.30;99.90
9125;DHT22;4597;48.730;9.114;2023-10-31T01:35:52;11.20;99.90
9125;DHT22;4597;48.730;9.114;2023-10-31T01:38:18;11.20;99.90
9125;DHT22;4597;48.730;9.114;2023-10-31T01:40:43;11.20;99.90
9125;DHT22;4597;48.730;9.114;2023-10-31T01:43:09;11.20;99.90
9125;DHT22;4597;48.730;9.114;2023-10-31T01:45:35;11.20;99.90
9125;DHT22;4597;48.730;9.114;2023-10-31T01:48:00;11.20;99.90
9125;DHT22;4597;48.730;9.114;2023-10-31T01:50:26;11.20;99.90
9125;DHT22;4597;48.730;9.114;2023-10-31T01:52:53;11.20;99.90
9125;DHT22;4597;48.730;9.114;2023-10-31T01:55:18;11.20;99.90
9125;DHT22;4597;48.730;9.114;2023-10-31T01:57:47;11.30;99.90
9125;DHT22;4597;48.730;9.114;2023-10-31T02:00:14;11.30;99.90
9125;DHT22;4597;48.730;9.114;2023-10-31T02:02:40;11.30;99.90
9125;DHT22;4597;48.730;9.114;2023-10-31T02:05:08;11.30;99.90
9125;DHT22;4597;48.730;9.114;2023-10-31T02:07:33;11.30;99.90
9125;DHT22;4597;48.730;9.114;2023-10-31T02:09:59;11.30;99.90
9125;DHT22;4597;48.730;9.114;2023-10-31T02:12:34;11.30;99.90
9125;DHT22;4597;48.730;9.114;2023-10-31T02:15:00;11.30;99.90
9125;DHT22;4597;48.730;9.114;2023-10-31T02:17:25;11.30;99.90
9125;DHT22;4597;48.730;9.114;2023-10-31T02:19:51;11.30;99.90
9125;DHT22;4597;48.730;9.114;2023-10-31T02:22:16;11.30;99.90
9125;DHT22;4597;48.730;9.114;2023-10-31T02:24:42;11.20;99.90
9125;DHT22;4597;48.730;9.114;2023-10-31T02:27:07;11.20;99.90
9125;DHT22;4597;48.730;9.114;2023-10-31T02:29:33;11.10;99.90
9125;DHT22;4597;48.730;9.114;2023-10-31T02:31:59;11.20;99.90
9125;DHT22;4597;48.730;9.114;2023-10-31T02:34:24;11.20;99.90
9125;DHT22;4597;48.730;9.114;2023-10-31T02:36:51;11.10;99.90
9125;DHT22;4597;48.730;9.114;2023-10-31T02:39:17;11.10;99.90
9125;DHT22;4597;48.730;9.114;2023-10-31T02:41:43;11.10;99.90
9125;DHT22;4597;48.730;9.114;2023-10-31T02:44:09;11.10;99.90
9125;DHT22;4597;48.730;9.114;2023-10-31T02:46:38;11.00;99.90
9125;DHT22;4597;48.730;9.114;2023-10-31T02:49:03;11.10;99.90
9125;DHT22;4597;48.730;9.114;2023-10-31T02:51:29;11.10;99.90
9125;DHT22;4597;48.730;9.114;2023-10-31T02:53:55;11.10;99.90
9125;DHT22;4597;48.730;9.114;2023-10-31T02:56:20;11.10;99.90
9125;DHT22;4597;48.730;9.114;2023-10-31T02:58:46;11.10;99.90
9125;DHT22;4597;48.730;9.114;2023-10-31T03:01:11;11.10;99.90
9125;DHT22;4597;48.730;9.114;2023-10-31T03:03:37;11.10;99.90
9125;DHT22;4597;48.730;9.114;2023-10-31T03:06:04;11.10;99.90
9125;DHT22;4597;48.730;9.114;2023-10-31T03:08:30;11.20;99.90
9125;DHT22;4597;48.730;9.114;2023-10-31T03:10:56;11.20;99.90
9125;DHT22;4597;48.730;9.114;2023-10-31T03:13:21;11.20;99.90
9125;DHT22;4597;48.730;9.114;2023-10-31T03:15:47;11.20;99.90
9125;DHT22;4597;48.730;9.114;2023-10-31T03:18:13;11.20;99.90
9125;DHT22;4597;48.730;9.114;2023-10-31T03:20:40;11.20;99.90
9125;DHT22;4597;48.730;9.114;2023-10-31T03:23:06;11.20;99.90
9125;DHT22;4597;48.730;9.114;2023-10-31T03:25:31;11.20;99.90
9125;DHT22;4597;48.730;9.114;2023-10-31T03:27:57;11.20;99.90
9125;DHT22;4597;48.730;9.114;2023-10-31T03:30:22;11.30;99.90
9125;DHT22;4597;48.730;9.114;2023-10-31T03:32:49;11.30;99.90
9125;DHT22;4597;48.730;9.114;2023-10-31T03:35:15;11.30;99.90
9125;DHT22;4597;48.730;9.114;2023-10-31T03:37:40;11.30;99.90
9125;DHT22;4597;48.730;9.114;2023-10-31T03:40:09;11.40;99.90
9125;DHT22;4597;48.730;9.114;2023-10-31T03:42:35;11.40;99.90
9125;DHT22;4597;48.730;9.114;2023-10-31T03:45:00;11.40;99.90
9125;DHT22;4597;48.730;9.114;2023-10-31T03:47:26;11.40;99.90
9125;DHT22;4597;48.730;9.114;2023-10-31T03:49:51;11.40;99.90
9125;DHT22;4597;48.730;9.114;2023-10-31T03:52:17;11.40;99.90
9125;DHT22;4597;48.730;9.114;2023-10-31T03:54:43;11.40;99.90
9125;DHT22;4597;48.730;9.114;2023-10-31T03:57:09;11.40;99.90
9125;DHT22;4597;48.730;9.114;2023-10-31T03:59:37;11.40;99.90
9125;DHT22;4597;48.730;9.114;2023-10-31T04:02:02;11.30;99.90
9125;DHT22;4597;48.730;9.114;2023-10-31T04:04:28;11.30;99.90
9125;DHT22;4597;48.730;9.114;2023-10-31T04:06:54;11.40;99.90
9125;DHT22;4597;48.730;9.114;2023-10-31T04:09:19;11.30;99.90
9125;DHT22;4597;48.730;9.114;2023-10-31T04:11:45;11.30;99.90
9125;DHT22;4597;48.730;9.114;2023-10-31T04:14:10;11.40;99.90
9125;DHT22;4597;48.730;9.114;2023-10-31T04:16:39;11.30;99.90
9125;DHT22;4597;48.730;9.114;2023-10-31T04:19:05;11.30;99.90
9125;DHT22;4597;48.730;9.114;2023-10-31T04:21:32;11.30;99.90
9125;DHT22;4597;48.730;9.114;2023-10-31T04:23:57;11.30;99.90
9125;DHT22;4597;48.730;9.114;2023-10-31T04:26:23;11.20;99.90
9125;DHT22;4597;48.730;9.114;2023-10-31T04:28:48;11.20;99.90
9125;DHT22;4597;48.730;9.114;2023-10-31T04:31:14;11.20;99.90
9125;DHT22;4597;48.730;9.114;2023-10-31T04:33:39;11.20;99.90
9125;DHT22;4597;48.730;9.114;2023-10-31T04:36:05;11.20;99.90
9125;DHT22;4597;48.730;9.114;2023-10-31T04:38:31;11.10;99.90
9125;DHT22;4597;48.730;9.114;2023-10-31T04:40:56;11.10;99.90
9125;DHT22;4597;48.730;9.114;2023-10-31T04:43:22;11.10;99.90
9125;DHT22;4597;48.730;9.114;2023-10-31T04:45:47;11.10;99.90
9125;DHT22;4597;48.730;9.114;2023-10-31T04:48:13;11.10;99.90
9125;DHT22;4597;48.730;9.114;2023-10-31T04:50:39;11.10;99.90
9125;DHT22;4597;48.730;9.114;2023-10-31T04:53:04;11.10;99.90
9125;DHT22;4597;48.730;9.114;2023-10-31T04:55:30;11.10;99.90
9125;DHT22;4597;48.730;9.114;2023-10-31T04:57:55;11.10;99.90
9125;DHT22;4597;48.730;9.114;2023-10-31T05:00:21;11.00;99.90
9125;DHT22;4597;48.730;9.114;2023-10-31T05:02:46;11.00;99.90
9125;DHT22;4597;48.730;9.114;2023-10-31T05:05:12;11.00;99.90
9125;DHT22;4597;48.730;9.114;2023-10-31T05:07:37;11.00;99.90
9125;DHT22;4597;48.730;9.114;2023-10-31T05:10:03;11.00;99.90
9125;DHT22;4597;48.730;9.114;2023-10-31T05:12:28;10.90;99.90
9125;DHT22;4597;48.730;9.114;2023-10-31T05:14:54;10.90;99.90
9125;DHT22;4597;48.730;9.114;2023-10-31T05:17:19;11.00;99.90
9125;DHT22;4597;48.730;9.114;2023-10-31T05:19:45;11.00;99.90
9125;DHT22;4597;48.730;9.114;2023-10-31T05:22:11;11.00;99.90
9125;DHT22;4597;48.730;9.114;2023-10-31T05:24:36;11.00;99.90
9125;DHT22;4597;48.730;9.114;2023-10-31T05:27:03;11.00;99.90
9125;DHT22;4597;48.730;9.114;2023-10-31T05:29:29;11.00;99.90
9125;DHT22;4597;48.730;9.114;2023-10-31T05:31:55;11.00;99.90
9125;DHT22;4597;48.730;9.114;2023-10-31T05:34:21;10.90;99.90
9125;DHT22;4597;48.730;9.114;2023-10-31T05:36:46;11.00;99.90
9125;DHT22;4597;48.730;9.114;2023-10-31T05:39:12;10.90;99.90
9125;DHT22;4597;48.730;9.114;2023-10-31T05:41:37;11.00;99.90
9125;DHT22;4597;48.730;9.114;2023-10-31T05:44:03;11.00;99.90
9125;DHT22;4597;48.730;9.114;2023-10-31T05:46:28;10.90;99.90
9125;DHT22;4597;48.730;9.114;2023-10-31T05:48:54;10.90;99.90
9125;DHT22;4597;48.730;9.114;2023-10-31T05:51:20;11.00;99.90
9125;DHT22;4597;48.730;9.114;2023-10-31T05:53:46;11.00;99.90
9125;DHT22;4597;48.730;9.114;2023-10-31T05:56:14;11.00;99.90
9125;DHT22;4597;48.730;9.114;2023-10-31T05:58:40;11.00;99.90
9125;DHT22;4597;48.730;9.114;2023-10-31T06:01:06;10.90;99.90
9125;DHT22;4597;48.730;9.114;2023-10-31T06:03:33;10.90;99.90
9125;DHT22;4597;48.730;9.114;2023-10-31T06:05:59;10.90;99.90
9125;DHT22;4597;48.730;9.114;2023-10-31T06:08:24;11.00;99.90
9125;DHT22;4597;48.730;9.114;2023-10-31T06:10:53;10.90;99.90
9125;DHT22;4597;48.730;9.114;2023-10-31T06:13:19;10.90;99.90
9125;DHT22;4597;48.730;9.114;2023-10-31T06:15:44;10.90;99.90
9125;DHT22;4597;48.730;9.114;2023-10-31T06:18:10;10.80;99.90
9125;DHT22;4597;48.730;9.114;2023-10-31T06:20:35;10.90;99.90
9125;DHT22;4597;48.730;9.114;2023-10-31T06:23:01;10.90;99.90
9125;DHT22;4597;48.730;9.114;2023-10-31T06:25:29;10.90;99.90
9125;DHT22;4597;48.730;9.114;2023-10-31T06:27:55;10.90;99.90
9125;DHT22;4597;48.730;9.114;2023-10-31T06:30:20;11.00;99.90
9125;DHT22;4597;48.730;9.114;2023-10-31T06:32:46;10.90;99.90
9125;DHT22;4597;48.730;9.114;2023-10-31T06:35:11;10.90;99.90
9125;DHT22;4597;48.730;9.114;2023-10-31T06:37:37;10.90;99.90
9125;DHT22;4597;48.730;9.114;2023-10-31T06:40:03;11.00;99.90
9125;DHT22;4597;48.730;9.114;2023-10-31T06:42:30;10.90;99.90
9125;DHT22;4597;48.730;9.114;2023-10-31T06:44:55;10.90;99.90
9125;DHT22;4597;48.730;9.114;2023-10-31T06:47:21;11.00;99.90
9125;DHT22;4597;48.730;9.114;2023-10-31T06:49:46;11.00;99.90
9125;DHT22;4597;48.730;9.114;2023-10-31T06:52:12;11.00;99.90
9125;DHT22;4597;48.730;9.114;2023-10-31T06:54:38;11.00;99.90
9125;DHT22;4597;48.730;9.114;2023-10-31T06:57:03;11.00;99.90
9125;DHT22;4597;48.730;9.114;2023-10-31T06:59:29;11.10;99.90
9125;DHT22;4597;48.730;9.114;2023-10-31T07:01:55;11.10;99.90
9125;DHT22;4597;48.730;9.114;2023-10-31T07:04:20;11.00;99.90
9125;DHT22;4597;48.730;9.114;2023-10-31T07:06:46;11.20;99.90
9125;DHT22;4597;48.730;9.114;2023-10-31T07:09:11;11.20;99.90
9125;DHT22;4597;48.730;9.114;2023-10-31T07:11:37;11.20;99.90
9125;DHT22;4597;48.730;9.114;2023-10-31T07:14:03;11.20;99.90
9125;DHT22;4597;48.730;9.114;2023-10-31T07:16:29;11.30;99.90
9125;DHT22;4597;48.730;9.114;2023-10-31T07:18:55;11.30;99.90
9125;DHT22;4597;48.730;9.114;2023-10-31T07:21:20;11.30;99.90
9125;DHT22;4597;48.730;9.114;2023-10-31T07:23:46;11.30;99.90
9125;DHT22;4597;48.730;9.114;2023-10-31T07:26:11;11.30;99.90
9125;DHT22;4597;48.730;9.114;2023-10-31T07:28:37;11.30;99.90
9125;DHT22;4597;48.730;9.114;2023-10-31T07:31:03;11.30;99.90
9125;DHT22;4597;48.730;9.114;2023-10-31T07:33:29;11.40;99.90
9125;DHT22;4597;48.730;9.114;2023-10-31T07:35:54;11.40;99.90
9125;DHT22;4597;48.730;9.114;2023-10-31T07:38:20;11.40;99.90
9125;DHT22;4597;48.730;9.114;2023-10-31T07:40:45;11.50;99.90
9125;DHT22;4597;48.730;9.114;2023-10-31T07:43:11;11.50;99.90
9125;DHT22;4597;48.730;9.114;2023-10-31T07:45:36;11.60;99.90
9125;DHT22;4597;48.730;9.114;2023-10-31T07:48:02;11.60;99.90
9125;DHT22;4597;48.730;9.114;2023-10-31T07:50:27;11.60;99.90
9125;DHT22;4597;48.730;9.114;2023-10-31T07:52:53;11.70;99.90
9125;DHT22;4597;48.730;9.114;2023-10-31T07:55:18;11.70;99.90
9125;DHT22;4597;48.730;9.114;2023-10-31T07:57:44;11.70;99.90
9125;DHT22;4597;48.730;9.114;2023-10-31T08:00:11;11.70;99.90
9125;DHT22;4597;48.730;9.114;2023-10-31T08:02:37;11.80;99.90
9125;DHT22;4597;48.730;9.114;2023-10-31T08:05:02;11.90;99.90
9125;DHT22;4597;48.730;9.114;2023-10-31T08:07:28;11.90;99.90
9125;DHT22;4597;48.730;9.114;2023-10-31T08:09:56;12.00;99.90
9125;DHT22;4597;48.730;9.114;2023-10-31T08:12:22;12.00;99.90
9125;DHT22;4597;48.730;9.114;2023-10-31T08:14:47;12.10;99.90
9125;DHT22;4597;48.730;9.114;2023-10-31T08:17:13;12.00;99.90
9125;DHT22;4597;48.730;9.114;2023-10-31T08:19:38;12.00;99.90
9125;DHT22;4597;48.730;9.114;2023-10-31T08:22:04;12.00;99.90
9125;DHT22;4597;48.730;9.114;2023-10-31T08:24:29;12.00;99.90
9125;DHT22;4597;48.730;9.114;2023-10-31T08:26:55;12.00;99.90
9125;DHT22;4597;48.730;9.114;2023-10-31T08:29:21;12.00;99.90
9125;DHT22;4597;48.730;9.114;2023-10-31T08:31:46;12.00;99.90
9125;DHT22;4597;48.730;9.114;2023-10-31T08:34:12;12.00;99.90
9125;DHT22;4597;48.730;9.114;2023-10-31T08:36:37;12.10;99.90
9125;DHT22;4597;48.730;9.114;2023-10-31T08:39:03;12.10;99.90
9125;DHT22;4597;48.730;9.114;2023-10-31T08:41:29;12.10;99.90
9125;DHT22;4597;48.730;9.114;2023-10-31T08:43:54;12.10;99.90
9125;DHT22;4597;48.730;9.114;2023-10-31T08:46:20;12.10;99.90
9125;DHT22;4597;48.730;9.114;2023-10-31T08:48:47;12.10;99.90
9125;DHT22;4597;48.730;9.114;2023-10-31T08:51:12;12.10;99.90
9125;DHT22;4597;48.730;9.114;2023-10-31T08:53:38;12.10;99.90
9125;DHT22;4597;48.730;9.114;2023-10-31T08:56:04;12.20;99.90
9125;DHT22;4597;48.730;9.114;2023-10-31T08:58:29;12.20;99.90
9125;DHT22;4597;48.730;9.114;2023-10-31T09:00:55;12.20;99.90
9125;DHT22;4597;48.730;9.114;2023-10-31T09:03:20;12.20;99.90
9125;DHT22;4597;48.730;9.114;2023-10-31T09:05:46;12.30;99.90
9125;DHT22;4597;48.730;9.114;2023-10-31T09:08:11;12.30;99.90
9125;DHT22;4597;48.730;9.114;2023-10-31T09:10:37;12.40;99.90
9125;DHT22;4597;48.730;9.114;2023-10-31T09:13:04;12.40;99.90
9125;DHT22;4597;48.730;9.114;2023-10-31T09:15:30;12.50;99.90
9125;DHT22;4597;48.730;9.114;2023-10-31T09:17:55;12.50;99.90
9125;DHT22;4597;48.730;9.114;2023-10-31T09:20:21;12.60;99.90
9125;DHT22;4597;48.730;9.114;2023-10-31T09:22:46;12.70;99.90
9125;DHT22;4597;48.730;9.114;2023-10-31T09:25:12;12.80;99.90
9125;DHT22;4597;48.730;9.114;2023-10-31T09:27:41;12.80;99.90
9125;DHT22;4597;48.730;9.114;2023-10-31T09:30:07;12.90;99.90
9125;DHT22;4597;48.730;9.114;2023-10-31T09:32:33;13.10;99.90
9125;DHT22;4597;48.730;9.114;2023-10-31T09:34:58;13.10;99.90
9125;DHT22;4597;48.730;9.114;2023-10-31T09:37:24;13.10;99.90
9125;DHT22;4597;48.730;9.114;2023-10-31T09:39:49;13.00;99.90
9125;DHT22;4597;48.730;9.114;2023-10-31T09:42:15;13.10;99.90
9125;DHT22;4597;48.730;9.114;2023-10-31T09:44:41;13.30;99.90
9125;DHT22;4597;48.730;9.114;2023-10-31T09:47:06;13.30;99.90
9125;DHT22;4597;48.730;9.114;2023-10-31T09:49:32;13.30;99.90
9125;DHT22;4597;48.730;9.114;2023-10-31T09:51:58;13.20;99.90
9125;DHT22;4597;48.730;9.114;2023-10-31T09:54:25;13.30;99.90
9125;DHT22;4597;48.730;9.114;2023-10-31T09:56:51;13.10;99.90
9125;DHT22;4597;48.730;9.114;2023-10-31T09:59:17;13.10;99.90
9125;DHT22;4597;48.730;9.114;2023-10-31T10:01:42;13.20;99.90
9125;DHT22;4597;48.730;9.114;2023-10-31T10:04:09;13.10;99.90
9125;DHT22;4597;48.730;9.114;2023-10-31T10:06:35;13.20;99.90
9125;DHT22;4597;48.730;9.114;2023-10-31T10:09:00;13.20;99.90
9125;DHT22;4597;48.730;9.114;2023-10-31T10:11:29;13.30;99.90
9125;DHT22;4597;48.730;9.114;2023-10-31T10:13:57;13.40;99.90
9125;DHT22;4597;48.730;9.114;2023-10-31T10:16:30;13.40;99.90
9125;DHT22;4597;48.730;9.114;2023-10-31T10:18:56;13.40;99.90
9125;DHT22;4597;48.730;9.114;2023-10-31T10:21:22;13.40;99.90
9125;DHT22;4597;48.730;9.114;2023-10-31T10:23:47;13.40;99.90
9125;DHT22;4597;48.730;9.114;2023-10-31T10:26:15;13.30;99.90
9125;DHT22;4597;48.730;9.114;2023-10-31T10:28:41;13.20;99.90
9125;DHT22;4597;48.730;9.114;2023-10-31T10:31:07;13.20;99.90
9125;DHT22;4597;48.730;9.114;2023-10-31T10:33:33;13.10;99.90
9125;DHT22;4597;48.730;9.114;2023-10-31T10:35:59;13.10;99.90
9125;DHT22;4597;48.730;9.114;2023-10-31T10:38:25;13.10;99.90
9125;DHT22;4597;48.730;9.114;2023-10-31T10:40:53;13.10;99.90
9125;DHT22;4597;48.730;9.114;2023-10-31T10:43:25;13.20;99.90
9125;DHT22;4597;48.730;9.114;2023-10-31T10:45:55;13.30;99.90
9125;DHT22;4597;48.730;9.114;2023-10-31T10:48:25;13.30;99.90
9125;DHT22;4597;48.730;9.114;2023-10-31T10:50:57;13.40;99.90
9125;DHT22;4597;48.730;9.114;2023-10-31T10:53:28;13.40;99.90
9125;DHT22;4597;48.730;9.114;2023-10-31T10:56:00;13.50;99.90
9125;DHT22;4597;48.730;9.114;2023-10-31T11:01:00;13.40;99.90
9125;DHT22;4597;48.730;9.114;2023-10-31T11:03:29;13.50;99.90
9125;DHT22;4597;48.730;9.114;2023-10-31T11:05:54;13.50;99.90
9125;DHT22;4597;48.730;9.114;2023-10-31T11:08:20;13.50;99.90
9125;DHT22;4597;48.730;9.114;2023-10-31T11:10:47;13.60;99.90
9125;DHT22;4597;48.730;9.114;2023-10-31T11:13:14;13.60;99.90
9125;DHT22;4597;48.730;9.114;2023-10-31T11:15:40;13.50;99.90
9125;DHT22;4597;48.730;9.114;2023-10-31T11:18:07;13.50;99.90
9125;DHT22;4597;48.730;9.114;2023-10-31T11:20:33;13.60;99.90
9125;DHT22;4597;48.730;9.114;2023-10-31T11:22:59;13.70;99.90
9125;DHT22;4597;48.730;9.114;2023-10-31T11:25:31;13.70;99.90
9125;DHT22;4597;48.730;9.114;2023-10-31T11:28:10;13.70;99.90
9125;DHT22;4597;48.730;9.114;2023-10-31T11:30:35;13.70;99.90
9125;DHT22;4597;48.730;9.114;2023-10-31T11:33:02;13.70;99.90
9125;DHT22;4597;48.730;9.114;2023-10-31T11:35:33;13.70;99.90
9125;DHT22;4597;48.730;9.114;2023-10-31T11:38:09;13.70;99.90
9125;DHT22;4597;48.730;9.114;2023-10-31T11:40:37;13.70;99.90
9125;DHT22;4597;48.730;9.114;2023-10-31T11:43:04;13.80;99.90
9125;DHT22;4597;48.730;9.114;2023-10-31T11:45:44;13.90;99.90
9125;DHT22;4597;48.730;9.114;2023-10-31T11:48:16;13.90;99.90
9125;DHT22;4597;48.730;9.114;2023-10-31T11:50:42;13.90;99.90
9125;DHT22;4597;48.730;9.114;2023-10-31T11:53:13;13.90;99.90
9125;DHT22;4597;48.730;9.114;2023-10-31T11:55:46;14.00;99.90
9125;DHT22;4597;48.730;9.114;2023-10-31T11:58:21;14.10;99.90
9125;DHT22;4597;48.730;9.114;2023-10-31T12:00:49;14.30;99.90
9125;DHT22;4597;48.730;9.114;2023-10-31T12:03:19;14.50;99.90
9125;DHT22;4597;48.730;9.114;2023-10-31T12:05:55;14.50;99.90
9125;DHT22;4597;48.730;9.114;2023-10-31T12:08:25;14.40;99.90
9125;DHT22;4597;48.730;9.114;2023-10-31T12:10:52;14.40;99.90
9125;DHT22;4597;48.730;9.114;2023-10-31T12:13:17;14.30;99.90
9125;DHT22;4597;48.730;9.114;2023-10-31T12:15:52;14.30;99.90
9125;DHT22;4597;48.730;9.114;2023-10-31T12:18:18;14.20;99.90
9125;DHT22;4597;48.730;9.114;2023-10-31T12:20:50;14.20;99.90
9125;DHT22;4597;48.730;9.114;2023-10-31T12:23:17;14.10;99.90
9125;DHT22;4597;48.730;9.114;2023-10-31T12:25:50;14.10;99.90
9125;DHT22;4597;48.730;9.114;2023-10-31T12:28:20;14.10;99.90
9125;DHT22;4597;48.730;9.114;2023-10-31T12:30:47;14.00;99.90
9125;DHT22;4597;48.730;9.114;2023-10-31T12:33:13;13.90;99.90
9125;DHT22;4597;48.730;9.114;2023-10-31T12:35:39;13.90;99.90
9125;DHT22;4597;48.730;9.114;2023-10-31T12:38:05;13.80;99.90
9125;DHT22;4597;48.730;9.114;2023-10-31T12:40:31;13.70;99.90
9125;DHT22;4597;48.730;9.114;2023-10-31T12:42:57;13.60;99.90
9125;DHT22;4597;48.730;9.114;2023-10-31T12:45:24;13.60;99.90
9125;DHT22;4597;48.730;9.114;2023-10-31T12:48:10;13.70;99.90
9125;DHT22;4597;48.730;9.114;2023-10-31T12:50:37;13.60;99.90
9125;DHT22;4597;48.730;9.114;2023-10-31T12:53:03;13.50;99.90
9125;DHT22;4597;48.730;9.114;2023-10-31T12:55:31;13.50;99.90
9125;DHT22;4597;48.730;9.114;2023-10-31T12:58:03;13.50;99.90
9125;DHT22;4597;48.730;9.114;2023-10-31T13:00:34;13.40;99.90
9125;DHT22;4597;48.730;9.114;2023-10-31T13:03:01;13.40;99.90
9125;DHT22;4597;48.730;9.114;2023-10-31T13:05:28;13.40;99.90
9125;DHT22;4597;48.730;9.114;2023-10-31T13:07:55;13.50;99.90
9125;DHT22;4597;48.730;9.114;2023-10-31T13:10:25;13.40;99.90
9125;DHT22;4597;48.730;9.114;2023-10-31T13:12:52;13.50;99.90
9125;DHT22;4597;48.730;9.114;2023-10-31T13:15:20;13.80;99.90
9125;DHT22;4597;48.730;9.114;2023-10-31T13:17:46;14.20;99.90
9125;DHT22;4597;48.730;9.114;2023-10-31T13:20:13;14.30;99.90
9125;DHT22;4597;48.730;9.114;2023-10-31T13:22:40;14.30;99.90
9125;DHT22;4597;48.730;9.114;2023-10-31T13:25:11;14.20;99.90
9125;DHT22;4597;48.730;9.114;2023-10-31T13:27:38;14.10;99.90
9125;DHT22;4597;48.730;9.114;2023-10-31T13:30:06;14.10;99.90
9125;DHT22;4597;48.730;9.114;2023-10-31T13:32:32;14.20;99.90
9125;DHT22;4597;48.730;9.114;2023-10-31T13:34:57;14.20;99.90
9125;DHT22;4597;48.730;9.114;2023-10-31T13:37:23;14.20;99.90
9125;DHT22;4597;48.730;9.114;2023-10-31T13:39:49;14.10;99.90
9125;DHT22;4597;48.730;9.114;2023-10-31T13:42:14;14.00;99.90
9125;DHT22;4597;48.730;9.114;2023-10-31T13:44:41;13.90;99.90
9125;DHT22;4597;48.730;9.114;2023-10-31T13:47:06;13.90;99.90
9125;DHT22;4597;48.730;9.114;2023-10-31T13:49:32;13.90;99.90
9125;DHT22;4597;48.730;9.114;2023-10-31T13:51:57;13.80;99.90
9125;DHT22;4597;48.730;9.114;2023-10-31T13:54:23;13.90;99.90
9125;DHT22;4597;48.730;9.114;2023-10-31T13:56:49;14.00;99.90
9125;DHT22;4597;48.730;9.114;2023-10-31T13:59:14;14.00;99.90
9125;DHT22;4597;48.730;9.114;2023-10-31T14:01:43;14.00;99.90
9125;DHT22;4597;48.730;9.114;2023-10-31T14:04:09;14.00;99.90
9125;DHT22;4597;48.730;9.114;2023-10-31T14:06:35;14.00;99.90
9125;DHT22;4597;48.730;9.114;2023-10-31T14:09:02;14.00;99.90
9125;DHT22;4597;48.730;9.114;2023-10-31T14:11:33;14.00;99.90
9125;DHT22;4597;48.730;9.114;2023-10-31T14:14:02;13.90;99.90
9125;DHT22;4597;48.730;9.114;2023-10-31T14:16:41;13.90;99.90
9125;DHT22;4597;48.730;9.114;2023-10-31T14:19:10;14.00;99.90
9125;DHT22;4597;48.730;9.114;2023-10-31T14:21:35;13.90;99.90
9125;DHT22;4597;48.730;9.114;2023-10-31T14:24:02;14.00;99.90
9125;DHT22;4597;48.730;9.114;2023-10-31T14:26:29;14.00;99.90
9125;DHT22;4597;48.730;9.114;2023-10-31T14:28:55;14.10;99.90
9125;DHT22;4597;48.730;9.114;2023-10-31T14:31:20;14.20;99.90
9125;DHT22;4597;48.730;9.114;2023-10-31T14:33:46;14.20;99.90
9125;DHT22;4597;48.730;9.114;2023-10-31T14:36:12;14.10;99.90
9125;DHT22;4597;48.730;9.114;2023-10-31T14:38:39;14.10;99.90
9125;DHT22;4597;48.730;9.114;2023-10-31T14:41:04;14.10;99.90
9125;DHT22;4597;48.730;9.114;2023-10-31T14:43:30;14.00;99.90
9125;DHT22;4597;48.730;9.114;2023-10-31T14:45:56;14.00;99.90
9125;DHT22;4597;48.730;9.114;2023-10-31T14:48:22;13.90;99.90
9125;DHT22;4597;48.730;9.114;2023-10-31T14:50:48;13.90;99.90
9125;DHT22;4597;48.730;9.114;2023-10-31T14:53:15;13.80;99.90
9125;DHT22;4597;48.730;9.114;2023-10-31T14:55:40;13.80;99.90
9125;DHT22;4597;48.730;9.114;2023-10-31T14:58:06;13.80;99.90
9125;DHT22;4597;48.730;9.114;2023-10-31T15:00:34;13.80;99.90
9125;DHT22;4597;48.730;9.114;2023-10-31T15:03:00;13.80;99.90
9125;DHT22;4597;48.730;9.114;2023-10-31T15:05:25;13.80;99.90
9125;DHT22;4597;48.730;9.114;2023-10-31T15:07:51;13.80;99.90
9125;DHT22;4597;48.730;9.114;2023-10-31T15:10:21;13.70;99.90
9125;DHT22;4597;48.730;9.114;2023-10-31T15:12:52;13.60;99.90
9125;DHT22;4597;48.730;9.114;2023-10-31T15:15:17;13.60;99.90
9125;DHT22;4597;48.730;9.114;2023-10-31T15:17:43;13.60;99.90
9125;DHT22;4597;48.730;9.114;2023-10-31T15:20:09;13.60;99.90
9125;DHT22;4597;48.730;9.114;2023-10-31T15:22:37;13.50;99.90
9125;DHT22;4597;48.730;9.114;2023-10-31T15:25:03;13.40;99.90
9125;DHT22;4597;48.730;9.114;2023-10-31T15:27:29;13.30;99.90
9125;DHT22;4597;48.730;9.114;2023-10-31T15:29:54;13.30;99.90
9125;DHT22;4597;48.730;9.114;2023-10-31T15:32:20;13.30;99.90
9125;DHT22;4597;48.730;9.114;2023-10-31T15:34:45;13.30;99.90
9125;DHT22;4597;48.730;9.114;2023-10-31T15:37:11;13.20;99.90
9125;DHT22;4597;48.730;9.114;2023-10-31T15:39:37;13.20;99.90
9125;DHT22;4597;48.730;9.114;2023-10-31T15:42:03;13.20;99.90
9125;DHT22;4597;48.730;9.114;2023-10-31T15:44:31;13.20;99.90
9125;DHT22;4597;48.730;9.114;2023-10-31T15:46:57;13.20;99.90
9125;DHT22;4597;48.730;9.114;2023-10-31T15:49:22;13.20;99.90
9125;DHT22;4597;48.730;9.114;2023-10-31T15:51:48;13.10;99.90
9125;DHT22;4597;48.730;9.114;2023-10-31T15:54:13;13.10;99.90
9125;DHT22;4597;48.730;9.114;2023-10-31T15:56:39;13.00;99.90
9125;DHT22;4597;48.730;9.114;2023-10-31T15:59:04;13.00;99.90